Time;durP1;ratioP1;P1;durP2;ratioP2;P2;SDS_P1;SDS_P2;PMS_P1;PMS_P2;Temp;Humidity;BMP_temperature;BMP_pressure;BME280_temperature;BME280_humidity;BME280_pressure;Samples;Min_cycle;Max_cycle;Signal;HPM_P1;HPM_P2
2021/06/01 00:01:17;;;;;;;;;;;;;;;24.20;58.21;100752.63;5071662;28;1678;-70
2021/06/01 00:03:43;;;;;;;;;;;;;;;24.19;58.18;100752.97;5071946;28;1535;-70
2021/06/01 00:06:08;;;;;;;;;;;;;;;24.19;58.27;100755.72;5071927;28;1537;-70
2021/06/01 00:08:33;;;;;;;;;;;;;;;24.20;57.74;100749.06;5071932;28;1511;-71
2021/06/01 00:10:59;;;;;;;;;;;;;;;24.20;58.11;100760.88;5071819;28;1650;-70
2021/06/01 00:13:24;;;;;;;;;;;;;;;24.19;57.89;100755.72;5071920;28;1964;-70
2021/06/01 00:15:49;;;;;;;;;;;;;;;24.13;58.28;100753.09;5076131;28;1826;-70
2021/06/01 00:18:15;;;;;;;;;;;;;;;24.13;58.48;100755.06;5077213;28;2046;-70
2021/06/01 00:20:40;;;;;;;;;;;;;;;24.13;57.92;100747.59;5073824;28;1532;-71
2021/06/01 00:23:05;;;;;;;;;;;;;;;24.23;58.25;100753.97;5075652;28;1734;-70
2021/06/01 00:25:31;;;;;;;;;;;;;;;24.32;57.71;100750.06;5073467;28;1549;-70
2021/06/01 00:27:56;;;;;;;;;;;;;;;24.28;58.09;100754.59;5071451;28;1547;-71
2021/06/01 00:30:21;;;;;;;;;;;;;;;24.28;57.75;100756.56;5071743;28;1563;-71
2021/06/01 00:32:47;;;;;;;;;;;;;;;24.26;57.86;100748.59;5072059;28;1923;-71
2021/06/01 00:35:12;;;;;;;;;;;;;;;24.29;57.86;100753.50;5072902;28;897;-71
2021/06/01 00:37:38;;;;;;;;;;;;;;;24.26;58.07;100754.09;5072800;28;907;-71
2021/06/01 00:40:03;;;;;;;;;;;;;;;24.25;57.85;100748.94;5056640;28;1927;-72
2021/06/01 00:42:29;;;;;;;;;;;;;;;24.36;57.57;100741.19;5072140;28;883;-71
2021/06/01 00:44:54;;;;;;;;;;;;;;;24.30;56.60;100735.81;5072782;28;1190;-69
2021/06/01 00:47:19;;;;;;;;;;;;;;;24.31;57.59;100742.16;5072600;28;889;-69
2021/06/01 00:49:45;;;;;;;;;;;;;;;24.27;57.89;100749.44;5073530;28;2078;-69
2021/06/01 00:52:12;;;;;;;;;;;;;;;24.24;57.80;100750.88;5083279;28;860;-69
2021/06/01 00:54:38;;;;;;;;;;;;;;;24.21;57.77;100756.22;5074057;28;1975;-70
2021/06/01 00:57:05;;;;;;;;;;;;;;;24.25;57.48;100757.19;5072530;28;857;-71
2021/06/01 00:59:30;;;;;;;;;;;;;;;24.30;57.46;100754.28;5072245;28;891;-71
2021/06/01 01:01:55;;;;;;;;;;;;;;;24.32;57.33;100754.78;5072851;28;902;-71
2021/06/01 01:04:21;;;;;;;;;;;;;;;24.31;57.66;100750.41;5072072;28;876;-71
2021/06/01 01:06:57;;;;;;;;;;;;;;;24.31;57.50;100762.22;5072136;28;920;-71
2021/06/01 01:09:24;;;;;;;;;;;;;;;24.35;57.49;100756.91;5071849;28;934;-71
2021/06/01 01:12:08;;;;;;;;;;;;;;;24.37;56.97;100762.06;5072017;28;915;-71
2021/06/01 01:14:40;;;;;;;;;;;;;;;24.35;57.05;100767.09;5071977;28;1894;-71
2021/06/01 01:17:26;;;;;;;;;;;;;;;24.32;56.81;100760.28;5075995;28;2084;-71
2021/06/01 01:20:04;;;;;;;;;;;;;;;24.28;57.53;100762.84;5084216;28;1166;-71
2021/06/01 01:22:32;;;;;;;;;;;;;;;24.25;57.91;100757.19;5071501;28;874;-71
2021/06/01 01:25:02;;;;;;;;;;;;;;;24.23;57.82;100768.53;5071855;28;1087;-71
2021/06/01 01:27:51;;;;;;;;;;;;;;;24.27;57.50;100761.25;5071645;28;937;-70
2021/06/01 01:30:17;;;;;;;;;;;;;;;24.28;57.71;100756.56;5071708;28;879;-70
2021/06/01 01:32:57;;;;;;;;;;;;;;;24.30;58.01;100765.31;5071696;28;919;-71
2021/06/01 01:35:24;;;;;;;;;;;;;;;24.24;58.50;100761.88;5070102;28;851;-71
2021/06/01 01:37:49;;;;;;;;;;;;;;;24.21;58.69;100764.47;5069728;28;1201;-72
2021/06/01 01:40:15;;;;;;;;;;;;;;;24.21;58.60;100753.47;5071549;28;782;-73
2021/06/01 01:42:45;;;;;;;;;;;;;;;24.28;58.09;100751.84;5071894;28;1086;-72
2021/06/01 01:45:34;;;;;;;;;;;;;;;24.23;58.40;100751.22;5071367;28;889;-73
2021/06/01 01:50:46;;;;;;;;;;;;;;;24.24;57.93;100737.09;5071677;28;910;-71
2021/06/01 01:53:16;;;;;;;;;;;;;;;24.27;58.08;100753.00;5069641;28;1894;-71
2021/06/01 01:55:45;;;;;;;;;;;;;;;24.30;57.35;100751.53;5071280;28;975;-70
2021/06/01 01:58:11;;;;;;;;;;;;;;;24.29;57.33;100750.72;5070990;28;904;-71
2021/06/01 02:00:36;;;;;;;;;;;;;;;24.24;57.58;100750.88;5072435;28;1822;-71
2021/06/01 02:03:02;;;;;;;;;;;;;;;24.21;57.51;100751.53;5085082;28;983;-74
2021/06/01 02:05:27;;;;;;;;;;;;;;;24.23;57.43;100757.53;5076170;28;984;-74
2021/06/01 02:07:53;;;;;;;;;;;;;;;24.23;57.19;100754.75;5070864;28;872;-71
2021/06/01 02:10:18;;;;;;;;;;;;;;;24.28;57.09;100749.09;5071075;28;1157;-73
2021/06/01 02:12:44;;;;;;;;;;;;;;;24.26;56.99;100756.88;5070929;28;927;-73
2021/06/01 02:15:09;;;;;;;;;;;;;;;24.32;57.05;100752.03;5071027;28;1885;-70
2021/06/01 02:17:35;;;;;;;;;;;;;;;24.29;57.04;100747.19;5070894;28;838;-70
2021/06/01 02:20:00;;;;;;;;;;;;;;;24.33;56.81;100753.66;5070845;28;1462;-70
2021/06/01 02:23:47;;;;;;;;;;;;;;;24.25;57.03;100748.94;5070629;28;889;-71
2021/06/01 02:25:30;;;;;;;;;;;;;;;24.29;56.88;100760.94;5082754;28;3888;-71
2021/06/01 02:27:57;;;;;;;;;;;;;;;24.28;57.09;100751.03;5089896;28;869;-73
2021/06/01 02:30:25;;;;;;;;;;;;;;;24.25;57.12;100754.44;5089282;28;1731;-73
2021/06/01 02:32:53;;;;;;;;;;;;;;;24.17;57.28;100753.28;5079702;28;1870;-73
2021/06/01 02:35:23;;;;;;;;;;;;;;;24.18;57.32;100756.84;5080042;28;891;-73
2021/06/01 02:37:49;;;;;;;;;;;;;;;24.17;57.27;100763.50;5070696;28;953;-73
2021/06/01 02:40:16;;;;;;;;;;;;;;;24.20;57.08;100760.09;5070248;28;939;-73
2021/06/01 02:42:43;;;;;;;;;;;;;;;24.16;57.00;100759.09;5070671;28;875;-73
2021/06/01 02:45:09;;;;;;;;;;;;;;;24.17;56.92;100752.47;5069078;28;1238;-73
2021/06/01 02:47:34;;;;;;;;;;;;;;;24.31;57.07;100751.22;5070413;28;1164;-71
2021/06/01 02:50:01;;;;;;;;;;;;;;;24.31;57.13;100745.72;5068889;28;892;-71
2021/06/01 02:52:26;;;;;;;;;;;;;;;24.25;57.05;100748.94;5069349;28;1131;-71
2021/06/01 02:54:52;;;;;;;;;;;;;;;24.15;57.18;100743.72;5069021;28;1951;-71
2021/06/01 02:57:20;;;;;;;;;;;;;;;24.13;57.06;100747.59;5073902;28;1675;-72
2021/06/01 02:59:46;;;;;;;;;;;;;;;24.14;56.84;100742.91;5083272;28;962;-72
2021/06/01 03:02:12;;;;;;;;;;;;;;;24.12;56.83;100747.91;5069170;28;827;-71
2021/06/01 03:04:47;;;;;;;;;;;;;;;24.08;56.73;100744.97;5068000;28;1887;-71
2021/06/01 03:07:13;;;;;;;;;;;;;;;24.07;56.53;100748.06;5069849;28;872;-72
2021/06/01 03:09:38;;;;;;;;;;;;;;;24.04;56.35;100743.19;5069886;28;893;-71
2021/06/01 03:12:05;;;;;;;;;;;;;;;24.07;56.38;100746.13;5069902;28;900;-72
2021/06/01 03:14:30;;;;;;;;;;;;;;;24.02;56.19;100743.50;5069735;28;2081;-72
2021/06/01 03:16:56;;;;;;;;;;;;;;;24.06;55.97;100747.25;5080753;28;1687;-69
2021/06/01 03:19:21;;;;;;;;;;;;;;;24.02;55.80;100753.69;5085064;28;902;-69
2021/06/01 03:21:46;;;;;;;;;;;;;;;23.99;55.93;100741.41;5073104;28;996;-69
2021/06/01 03:24:12;;;;;;;;;;;;;;;23.93;55.90;100748.16;5073320;28;870;-69
2021/06/01 03:26:37;;;;;;;;;;;;;;;23.94;55.84;100741.53;5073264;28;845;-69
2021/06/01 03:29:02;;;;;;;;;;;;;;;23.94;55.79;100741.53;5072992;28;889;-69
2021/06/01 03:31:31;;;;;;;;;;;;;;;23.93;55.42;100734.41;5077140;28;1664;-72
2021/06/01 03:33:56;;;;;;;;;;;;;;;23.93;55.55;100735.22;5087152;28;1927;-72
2021/06/01 03:36:21;;;;;;;;;;;;;;;23.93;55.27;100740.72;5073824;28;902;-72
2021/06/01 03:38:50;;;;;;;;;;;;;;;23.95;55.36;100747.88;5086161;28;1567;-70
2021/06/01 03:41:15;;;;;;;;;;;;;;;23.90;54.51;100737.78;5087670;28;1463;-71
2021/06/01 03:43:41;;;;;;;;;;;;;;;23.78;54.78;100743.06;5094472;28;853;-71
2021/06/01 03:46:06;;;;;;;;;;;;;;;23.67;54.64;100743.31;5087434;28;988;-72
2021/06/01 03:48:31;;;;;;;;;;;;;;;23.60;54.74;100737.44;5092512;28;894;-71
2021/06/01 03:50:57;;;;;;;;;;;;;;;23.63;54.63;100744.25;5094005;28;922;-72
2021/06/01 03:53:22;;;;;;;;;;;;;;;23.59;54.42;100744.06;5092641;28;1934;-72
2021/06/01 03:55:48;;;;;;;;;;;;;;;23.51;54.80;100731.91;5093733;28;869;-72
2021/06/01 03:58:13;;;;;;;;;;;;;;;23.56;53.00;100733.69;5084553;28;896;-73
2021/06/01 04:00:38;;;;;;;;;;;;;;;23.47;53.33;100730.09;5074351;28;1554;-73
2021/06/01 04:03:03;;;;;;;;;;;;;;;23.49;53.62;100720.41;5090194;28;955;-73
2021/06/01 04:05:29;;;;;;;;;;;;;;;23.49;53.32;100734.16;5091693;28;1988;-72
2021/06/01 04:07:54;;;;;;;;;;;;;;;23.53;53.40;100735.13;5079328;28;1830;-73
2021/06/01 04:10:20;;;;;;;;;;;;;;;23.59;53.34;100733.06;5078057;28;1591;-72
2021/06/01 04:12:45;;;;;;;;;;;;;;;23.58;53.47;100733.38;5080193;28;1942;-72
2021/06/01 04:15:11;;;;;;;;;;;;;;;23.66;53.45;100733.44;5086458;28;1893;-72
2021/06/01 04:17:36;;;;;;;;;;;;;;;23.65;53.44;100729.06;5071953;28;936;-72
2021/06/01 04:20:03;;;;;;;;;;;;;;;23.55;53.65;100739.53;5076093;28;1684;-72
2021/06/01 04:22:29;;;;;;;;;;;;;;;23.14;51.37;100730.38;5087618;28;1357;-72
2021/06/01 04:24:54;;;;;;;;;;;;;;;22.75;50.69;100726.28;5072615;28;786;-72
2021/06/01 04:27:19;;;;;;;;;;;;;;;22.55;50.89;100738.50;5069950;28;870;-72
2021/06/01 04:29:45;;;;;;;;;;;;;;;22.57;50.82;100739.03;5070705;28;872;-73
2021/06/01 04:32:10;;;;;;;;;;;;;;;22.51;50.93;100738.31;5074547;28;1665;-72
2021/06/01 04:34:36;;;;;;;;;;;;;;;22.57;51.76;100741.75;5081079;28;1870;-72
2021/06/01 04:37:01;;;;;;;;;;;;;;;22.78;50.97;100742.16;5079099;28;1638;-72
2021/06/01 04:39:27;;;;;;;;;;;;;;;22.81;50.59;100738.75;5085321;28;1594;-72
2021/06/01 04:41:52;;;;;;;;;;;;;;;22.68;49.74;100753.34;5081100;28;1689;-72
2021/06/01 04:44:18;;;;;;;;;;;;;;;22.62;49.45;100749.09;5083630;28;1601;-72
2021/06/01 04:46:43;;;;;;;;;;;;;;;22.69;49.61;100744.78;5080449;28;873;-72
2021/06/01 04:49:08;;;;;;;;;;;;;;;22.55;49.19;100749.50;5071631;28;1282;-73
2021/06/01 04:51:34;;;;;;;;;;;;;;;22.50;49.27;100747.69;5071701;28;814;-73
2021/06/01 04:54:00;;;;;;;;;;;;;;;22.64;50.81;100741.38;5078079;28;1957;-72
2021/06/01 04:56:26;;;;;;;;;;;;;;;22.81;50.35;100740.72;5081650;28;810;-73
2021/06/01 04:58:51;;;;;;;;;;;;;;;22.98;50.25;100749.13;5071743;28;908;-72
2021/06/01 05:01:17;;;;;;;;;;;;;;;23.22;49.37;100756.25;5071296;28;893;-73
2021/06/01 05:03:42;;;;;;;;;;;;;;;23.12;50.55;100752.66;5074601;28;1765;-74
2021/06/01 05:06:08;;;;;;;;;;;;;;;23.30;51.69;100748.09;5080646;28;795;-70
2021/06/01 05:08:34;;;;;;;;;;;;;;;23.44;51.72;100749.94;5081802;28;1418;-83
2021/06/01 05:10:59;;;;;;;;;;;;;;;23.60;51.97;100756.69;5089954;28;1610;-76
2021/06/01 05:13:24;;;;;;;;;;;;;;;23.66;52.04;100760.94;5092131;28;1939;-72
2021/06/01 05:15:51;;;;;;;;;;;;;;;23.71;52.49;100758.06;5087140;28;940;-71
2021/06/01 05:18:17;;;;;;;;;;;;;;;23.63;51.63;100752.50;5084367;28;850;-71
2021/06/01 05:20:42;;;;;;;;;;;;;;;23.56;52.58;100754.88;5071294;28;837;-72
2021/06/01 05:23:08;;;;;;;;;;;;;;;23.53;52.34;100757.13;5070958;28;802;-71
2021/06/01 05:25:33;;;;;;;;;;;;;;;23.55;52.28;100756.03;5071149;28;888;-71
2021/06/01 05:27:59;;;;;;;;;;;;;;;23.30;51.94;100750.00;5074366;28;960;-71
2021/06/01 05:30:33;;;;;;;;;;;;;;;23.41;52.80;100759.66;5091072;28;857;-72
2021/06/01 05:35:27;;;;;;;;;;;;;;;23.39;51.97;100748.16;5081543;28;1658;-73
2021/06/01 05:37:52;;;;;;;;;;;;;;;23.46;52.52;100745.78;5087033;28;830;-73
2021/06/01 05:40:18;;;;;;;;;;;;;;;23.52;52.96;100749.19;5089743;28;888;-73
2021/06/01 05:42:43;;;;;;;;;;;;;;;23.47;52.45;100752.09;5083049;28;1741;-74
2021/06/01 05:45:08;;;;;;;;;;;;;;;23.38;53.14;100749.28;5090383;28;900;-74
2021/06/01 05:47:34;;;;;;;;;;;;;;;23.32;53.00;100756.00;5089611;28;1448;-74
2021/06/01 05:50:00;;;;;;;;;;;;;;;23.32;52.81;100759.59;5089101;28;874;-74
2021/06/01 05:52:25;;;;;;;;;;;;;;;23.37;52.59;100755.09;5089541;28;794;-74
2021/06/01 05:54:50;;;;;;;;;;;;;;;23.36;52.71;100753.44;5088948;28;1959;-74
2021/06/01 05:57:15;;;;;;;;;;;;;;;23.41;52.88;100751.41;5089187;28;897;-74
2021/06/01 05:59:41;;;;;;;;;;;;;;;23.44;53.05;100741.72;5088951;28;866;-74
2021/06/01 06:02:07;;;;;;;;;;;;;;;23.43;53.27;100754.66;5090380;28;838;-74
2021/06/01 06:04:32;;;;;;;;;;;;;;;23.39;52.83;100737.16;5090590;28;922;-74
2021/06/01 06:06:58;;;;;;;;;;;;;;;23.44;53.08;100736.22;5090684;28;854;-74
2021/06/01 06:09:23;;;;;;;;;;;;;;;23.45;53.01;100735.91;5090708;28;865;-74
2021/06/01 06:11:48;;;;;;;;;;;;;;;23.46;53.23;100734.78;5090639;28;799;-74
2021/06/01 06:14:14;;;;;;;;;;;;;;;23.40;52.92;100733.28;5090481;28;1946;-74
2021/06/01 06:16:49;;;;;;;;;;;;;;;23.39;52.52;100739.09;5090328;28;782;-74
2021/06/01 06:19:15;;;;;;;;;;;;;;;23.33;52.77;100730.97;5090578;28;865;-74
2021/06/01 06:21:40;;;;;;;;;;;;;;;23.38;52.38;100740.22;5090251;28;794;-74
2021/06/01 06:24:05;;;;;;;;;;;;;;;23.31;52.80;100726.91;5090172;28;798;-74
2021/06/01 06:26:31;;;;;;;;;;;;;;;23.35;52.79;100721.63;5090550;28;854;-74
2021/06/01 06:28:56;;;;;;;;;;;;;;;23.39;52.57;100728.91;5089888;28;778;-74
2021/06/01 06:31:21;;;;;;;;;;;;;;;23.47;52.54;100730.09;5090074;28;884;-74
2021/06/01 06:33:47;;;;;;;;;;;;;;;23.49;53.37;100734.16;5090006;28;1929;-74
2021/06/01 06:36:12;;;;;;;;;;;;;;;23.42;51.98;100733.78;5090200;28;920;-74
2021/06/01 06:38:37;;;;;;;;;;;;;;;23.44;52.17;100737.03;5090048;28;868;-74
2021/06/01 06:43:38;;;;;;;;;;;;;;;23.46;53.46;100733.97;5089705;28;833;-74
2021/06/01 06:46:08;;;;;;;;;;;;;;;23.43;52.47;100729.09;5089939;28;814;-74
2021/06/01 06:48:33;;;;;;;;;;;;;;;23.29;51.58;100732.72;5090230;28;848;-74
2021/06/01 06:51:00;;;;;;;;;;;;;;;23.24;50.82;100740.28;5089970;28;862;-73
2021/06/01 06:53:25;;;;;;;;;;;;;;;23.12;52.54;100730.66;5089372;28;1910;-74
2021/06/01 06:55:51;;;;;;;;;;;;;;;23.20;52.55;100736.53;5089564;28;861;-74
2021/06/01 06:58:16;;;;;;;;;;;;;;;23.24;51.59;100734.78;5089873;28;767;-74
2021/06/01 07:00:42;;;;;;;;;;;;;;;23.31;52.19;100729.66;5089863;28;790;-74
2021/06/01 07:03:07;;;;;;;;;;;;;;;23.23;52.21;100741.41;5089826;28;818;-74
2021/06/01 07:05:32;;;;;;;;;;;;;;;23.21;51.62;100743.66;5089818;28;874;-74
2021/06/01 07:07:58;;;;;;;;;;;;;;;23.21;52.50;100735.41;5089761;28;857;-74
2021/06/01 07:10:24;;;;;;;;;;;;;;;23.28;51.72;100739.34;5089395;28;861;-74
2021/06/01 07:12:51;;;;;;;;;;;;;;;23.29;52.17;100745.66;5089608;28;845;-74
2021/06/01 07:15:23;;;;;;;;;;;;;;;23.17;51.15;100748.16;5089604;28;1882;-74
2021/06/01 07:17:52;;;;;;;;;;;;;;;23.21;51.47;100746.41;5089726;28;912;-74
2021/06/01 07:20:17;;;;;;;;;;;;;;;23.20;52.55;100745.59;5089744;28;869;-74
2021/06/01 07:22:43;;;;;;;;;;;;;;;23.29;51.48;100745.66;5089472;28;988;-74
2021/06/01 07:25:08;;;;;;;;;;;;;;;23.22;51.05;100748.84;5089320;28;925;-73
2021/06/01 07:27:34;;;;;;;;;;;;;;;23.16;50.57;100752.84;5089489;28;1159;-74
2021/06/01 07:29:59;;;;;;;;;;;;;;;23.11;51.14;100758.44;5089485;28;783;-74
2021/06/01 07:32:24;;;;;;;;;;;;;;;23.08;51.61;100759.06;5089512;28;786;-74
2021/06/01 07:34:50;;;;;;;;;;;;;;;23.12;50.80;100752.66;5089628;28;1964;-74
2021/06/01 07:37:16;;;;;;;;;;;;;;;23.11;51.85;100751.00;5089438;28;897;-73
2021/06/01 07:39:42;;;;;;;;;;;;;;;23.18;51.50;100753.34;5089559;28;869;-74
2021/06/01 07:42:07;;;;;;;;;;;;;;;23.21;51.50;100760.16;5089504;28;1080;-74
2021/06/01 07:44:33;;;;;;;;;;;;;;;23.20;50.64;100750.25;5089970;28;803;-74
2021/06/01 07:46:59;;;;;;;;;;;;;;;23.29;51.05;100751.16;5089463;28;902;-74
2021/06/01 07:49:24;;;;;;;;;;;;;;;23.25;50.70;100753.72;5089251;28;812;-73
2021/06/01 07:51:50;;;;;;;;;;;;;;;23.27;52.07;100750.66;5089253;28;833;-74
2021/06/01 07:54:15;;;;;;;;;;;;;;;23.23;50.71;100747.72;5087539;28;1890;-74
2021/06/01 07:56:40;;;;;;;;;;;;;;;23.25;51.69;100747.41;5089189;28;787;-74
2021/06/01 07:59:06;;;;;;;;;;;;;;;23.21;51.32;100749.16;5089263;28;794;-74
2021/06/01 08:01:31;;;;;;;;;;;;;;;23.26;50.63;100741.59;5090914;28;928;-74
2021/06/01 08:03:56;;;;;;;;;;;;;;;23.12;50.20;100740.84;5086525;28;1814;-74
2021/06/01 08:06:24;;;;;;;;;;;;;;;23.12;51.32;100740.84;5077314;28;1971;-74
2021/06/01 08:08:49;;;;;;;;;;;;;;;23.19;51.25;100746.72;5081031;28;817;-74
2021/06/01 08:11:15;;;;;;;;;;;;;;;23.19;49.13;100743.97;5075904;28;1740;-73
2021/06/01 08:13:40;;;;;;;;;;;;;;;23.10;50.77;100749.41;5082950;28;1894;-74
2021/06/01 08:16:05;;;;;;;;;;;;;;;23.12;50.99;100751.84;5081910;28;949;-74
2021/06/01 08:18:36;;;;;;;;;;;;;;;23.09;50.59;100739.53;5073031;28;841;-74
2021/06/01 08:21:08;;;;;;;;;;;;;;;23.16;51.37;100741.03;5072649;28;889;-74
2021/06/01 08:23:33;;;;;;;;;;;;;;;23.29;51.86;100740.97;5074671;28;1724;-74
2021/06/01 08:25:59;;;;;;;;;;;;;;;23.33;51.86;100747.47;5081078;28;853;-73
2021/06/01 08:28:24;;;;;;;;;;;;;;;23.36;51.70;100737.75;5072531;28;830;-74
2021/06/01 08:30:51;;;;;;;;;;;;;;;23.28;51.24;100744.03;5072430;28;876;-74
2021/06/01 08:33:17;;;;;;;;;;;;;;;23.33;51.95;100738.41;5075041;28;1936;-74
2021/06/01 08:35:42;;;;;;;;;;;;;;;23.30;50.42;100731.63;5080840;28;842;-74
2021/06/01 08:38:07;;;;;;;;;;;;;;;23.37;51.95;100730.34;5075944;28;1648;-74
2021/06/01 08:40:33;;;;;;;;;;;;;;;23.20;48.99;100736.53;5082730;28;1705;-74
2021/06/01 08:42:58;;;;;;;;;;;;;;;23.06;50.62;100729.16;5075852;28;1548;-74
2021/06/01 08:45:24;;;;;;;;;;;;;;;23.11;51.17;100723.53;5076083;28;1499;-74
2021/06/01 08:47:49;;;;;;;;;;;;;;;23.21;50.48;100724.44;5077154;28;1644;-74
2021/06/01 08:50:15;;;;;;;;;;;;;;;23.16;51.64;100719.03;5081654;28;829;-74
2021/06/01 08:52:41;;;;;;;;;;;;;;;23.21;51.17;100716.97;5071380;28;1224;-74
2021/06/01 08:55:07;;;;;;;;;;;;;;;23.31;51.69;100704.94;5069336;28;1957;-75
2021/06/01 08:57:33;;;;;;;;;;;;;;;23.32;51.11;100723.88;5075918;28;1001;-75
2021/06/01 08:59:58;;;;;;;;;;;;;;;23.33;51.58;100717.22;5070963;28;988;-75
2021/06/01 09:02:24;;;;;;;;;;;;;;;23.37;51.36;100713.88;5071534;28;917;-75
2021/06/01 09:04:56;;;;;;;;;;;;;;;23.38;51.48;100719.06;5072103;28;813;-75
2021/06/01 09:07:47;;;;;;;;;;;;;;;23.35;50.97;100714.16;5071113;28;900;-74
2021/06/01 09:13:03;;;;;;;;;;;;;;;23.33;50.12;100717.22;5074472;28;842;-75
2021/06/01 09:21:14;;;;;;;;;;;;;;;23.20;49.42;100720.03;5083346;28;809;-75
2021/06/01 09:23:53;;;;;;;;;;;;;;;23.23;51.93;100722.19;5069842;28;1533;-75
2021/06/01 09:26:37;;;;;;;;;;;;;;;23.19;49.55;100723.94;5070974;28;797;-75
2021/06/01 09:29:02;;;;;;;;;;;;;;;23.21;50.23;100714.25;5070428;28;864;-75
2021/06/01 09:31:28;;;;;;;;;;;;;;;23.26;50.69;100714.13;5071268;28;896;-75
2021/06/01 09:33:53;;;;;;;;;;;;;;;23.27;50.80;100717.69;5076380;28;1858;-75
2021/06/01 09:36:21;;;;;;;;;;;;;;;23.35;51.41;100703.19;5080134;28;857;-75
2021/06/01 09:38:47;;;;;;;;;;;;;;;23.32;51.26;100710.13;5051592;28;1588;-75
2021/06/01 09:41:12;;;;;;;;;;;;;;;23.30;51.50;100711.53;5083232;28;906;-74
2021/06/01 09:43:54;;;;;;;;;;;;;;;23.36;51.52;100703.97;5077077;28;845;-75
2021/06/01 09:46:29;;;;;;;;;;;;;;;23.35;51.57;100699.63;5081390;28;1708;-75
2021/06/01 09:49:15;;;;;;;;;;;;;;;23.33;50.49;100700.75;5081057;28;842;-75
2021/06/01 09:51:46;;;;;;;;;;;;;;;23.35;50.70;100707.88;5069687;28;1338;-75
2021/06/01 09:54:32;;;;;;;;;;;;;;;23.18;49.88;100700.31;5070419;28;1895;-74
2021/06/01 09:56:58;;;;;;;;;;;;;;;23.17;51.08;100702.25;5072113;28;1822;-75
2021/06/01 09:59:23;;;;;;;;;;;;;;;23.31;51.47;100699.44;5080404;28;1696;-75
2021/06/01 10:01:49;;;;;;;;;;;;;;;23.31;51.31;100686.50;5076022;28;1532;-74
2021/06/01 10:04:24;;;;;;;;;;;;;;;23.30;50.70;100701.38;5085380;28;799;-75
2021/06/01 10:06:50;;;;;;;;;;;;;;;23.34;51.14;100696.03;5074403;28;1705;-75
2021/06/01 10:09:15;;;;;;;;;;;;;;;23.30;49.81;100701.38;5078312;28;1620;-76
2021/06/01 10:11:51;;;;;;;;;;;;;;;23.18;50.10;100695.66;5081626;28;1383;-75
2021/06/01 10:14:16;;;;;;;;;;;;;;;23.08;48.65;100699.44;5079160;28;2015;-75
2021/06/01 10:16:41;;;;;;;;;;;;;;;23.10;49.86;100691.72;5075132;28;1590;-75
2021/06/01 10:19:08;;;;;;;;;;;;;;;23.13;50.54;100702.06;5076615;28;1604;-75
2021/06/01 10:21:33;;;;;;;;;;;;;;;23.10;49.92;100705.44;5078915;28;1492;-75
2021/06/01 10:23:58;;;;;;;;;;;;;;;23.00;45.43;100702.09;5071672;28;2391;-75
2021/06/01 10:26:27;;;;;;;;;;;;;;;22.86;48.34;100707.66;5073381;28;1462;-75
2021/06/01 10:28:53;;;;;;;;;;;;;;;22.91;48.60;100702.81;5074766;28;1414;-75
2021/06/01 10:31:18;;;;;;;;;;;;;;;22.89;46.37;100707.00;5078452;28;1656;-75
2021/06/01 10:33:49;;;;;;;;;;;;;;;22.87;48.10;100706.50;5076446;28;1982;-76
2021/06/01 10:53:09;;;;;;;;;;;;;;;23.16;50.92;100681.41;5077356;28;1546;-75
2021/06/01 10:56:01;;;;;;;;;;;;;;;22.94;47.20;100693.19;5074895;28;1901;-75
2021/06/01 10:58:49;;;;;;;;;;;;;;;22.95;48.60;100686.53;5069783;28;818;-75
2021/06/01 11:04:08;;;;;;;;;;;;;;;22.81;45.33;100686.59;5077661;28;1541;-75
2021/06/01 11:06:50;;;;;;;;;;;;;;;22.72;44.86;100682.97;5058646;28;1762;-76
2021/06/01 11:09:45;;;;;;;;;;;;;;;22.70;44.85;100691.53;5079132;28;1944;-75
2021/06/01 11:12:13;;;;;;;;;;;;;;;22.70;43.87;100687.97;5079542;28;1853;-76
2021/06/01 11:14:39;;;;;;;;;;;;;;;22.69;45.05;100683.59;5078195;28;1977;-75
2021/06/01 11:17:04;;;;;;;;;;;;;;;22.67;45.12;100685.81;5078426;28;1568;-75
2021/06/01 11:19:55;;;;;;;;;;;;;;;22.59;44.41;100692.84;5078336;28;849;-76
2021/06/01 11:22:25;;;;;;;;;;;;;;;22.58;44.26;100693.16;5069287;28;865;-76
2021/06/01 11:33:27;;;;;;;;;;;;;;;22.50;43.00;100684.56;5074679;28;1882;-75
2021/06/01 11:35:55;;;;;;;;;;;;;;;22.48;43.07;100684.03;5077130;28;1600;-75
2021/06/01 11:38:26;;;;;;;;;;;;;;;22.44;42.84;100693.22;5083471;28;805;-75
2021/06/01 11:43:37;;;;;;;;;;;;;;;22.47;44.26;100703.56;5073259;28;729;-75
2021/06/01 11:46:24;;;;;;;;;;;;;;;22.43;44.20;100700.63;5072747;28;869;-76
2021/06/01 11:51:27;;;;;;;;;;;;;;;22.32;44.27;100704.72;5073228;28;1733;-75
2021/06/01 11:53:56;;;;;;;;;;;;;;;22.05;43.04;100710.97;5079454;28;1964;-76
2021/06/01 11:56:33;;;;;;;;;;;;;;;22.05;43.88;100710.97;5092979;28;849;-76
2021/06/01 12:04:50;;;;;;;;;;;;;;;22.13;45.38;100715.75;5092912;28;806;-75
2021/06/01 12:18:00;;;;;;;;;;;;;;;22.11;46.57;100705.09;5092799;28;792;-75
2021/06/01 12:20:26;;;;;;;;;;;;;;;22.06;45.83;100707.94;5092659;28;849;-75
2021/06/01 12:22:52;;;;;;;;;;;;;;;22.04;45.63;100707.44;5092651;28;838;-76
2021/06/01 12:25:19;;;;;;;;;;;;;;;22.02;45.65;100701.44;5082945;28;1744;-76
2021/06/01 12:30:51;;;;;;;;;;;;;;;22.00;45.95;100708.34;5077614;28;826;-76
2021/06/01 12:33:16;;;;;;;;;;;;;;;21.99;45.49;100704.78;5079176;28;2074;-75
2021/06/01 12:37:02;;;;;;;;;;;;;;;21.90;45.10;100703.88;5080835;28;1470;-76
2021/06/01 12:41:45;;;;;;;;;;;;;;;22.11;45.76;100698.78;5082445;28;1607;-75
2021/06/01 12:44:11;;;;;;;;;;;;;;;22.25;45.30;100699.63;5077047;28;797;-76
2021/06/01 12:46:57;;;;;;;;;;;;;;;22.40;45.62;100694.94;5084099;28;834;-76
2021/06/01 13:07:34;;;;;;;;;;;;;;;22.38;44.82;100706.22;5080138;28;1708;-75
2021/06/01 13:19:34;;;;;;;;;;;;;;;22.66;45.58;100696.00;5080479;28;793;-75
2021/06/01 13:22:14;;;;;;;;;;;;;;;22.67;45.97;100696.81;5079137;28;1506;-77
2021/06/01 13:30:28;;;;;;;;;;;;;;;22.94;44.79;100696.72;5071546;28;1755;-76
2021/06/01 13:36:25;;;;;;;;;;;;;;;23.03;44.08;100694.06;5076313;28;1569;-75
2021/06/01 13:38:32;;;;;;;;;;;;;;;23.17;42.81;100705.00;5077838;28;853;-76
2021/06/01 13:46:43;;;;;;;;;;;;;;;23.07;43.44;100716.25;5080334;28;1055;-76
2021/06/01 13:49:13;;;;;;;;;;;;;;;23.08;42.86;100717.84;5090877;28;822;-75
2021/06/01 13:56:56;;;;;;;;;;;;;;;23.03;43.30;100723.47;5090975;28;768;-75
2021/06/01 15:10:57;;;;;;;;;;;;;;;23.51;43.20;100753.09;5078577;28;1957;-73
2021/06/01 15:30:17;;;;;;;;;;;;;;;23.35;44.83;100787.56;5057540;28;951;-72
2021/06/01 16:31:03;;;;;;;;;;;;;;;23.30;43.97;100880.03;5068861;28;1676;-72
2021/06/01 16:33:44;;;;;;;;;;;;;;;23.05;44.12;100886.06;5082935;28;1482;-72
2021/06/01 17:03:26;;;;;;;;;;;;;;;22.93;42.88;100917.56;5071021;28;1316;-72
2021/06/01 17:05:57;;;;;;;;;;;;;;;22.99;42.95;100911.97;5068955;28;1329;-72
2021/06/01 17:11:17;;;;;;;;;;;;;;;22.97;42.70;100923.28;5090659;28;730;-72
2021/06/01 17:13:48;;;;;;;;;;;;;;;22.91;41.97;100921.75;5090807;28;1898;-72
2021/06/01 17:16:25;;;;;;;;;;;;;;;22.91;42.34;100922.56;5090375;28;846;-72
2021/06/01 17:24:20;;;;;;;;;;;;;;;22.86;42.47;100941.09;5090748;28;738;-72
2021/06/01 17:35:00;;;;;;;;;;;;;;;22.59;42.15;100953.66;5080321;28;1953;-72
2021/06/01 17:37:26;;;;;;;;;;;;;;;22.59;43.01;100950.09;5072685;28;943;-72
2021/06/01 17:39:52;;;;;;;;;;;;;;;22.58;42.71;100953.94;5090601;28;2127;-72
2021/06/01 17:42:18;;;;;;;;;;;;;;;22.58;42.46;100953.94;5075216;28;1512;-72
2021/06/01 17:44:46;;;;;;;;;;;;;;;22.54;42.81;100957.31;5071191;28;835;-72
2021/06/01 17:47:16;;;;;;;;;;;;;;;22.53;42.56;100963.09;5071040;28;861;-72
2021/06/01 17:49:43;;;;;;;;;;;;;;;22.49;43.08;100964.81;5051045;28;878;-72
2021/06/01 17:52:08;;;;;;;;;;;;;;;22.44;42.26;100964.94;5076363;28;1255;-72
2021/06/01 17:54:34;;;;;;;;;;;;;;;22.39;42.93;100971.31;5090451;28;1898;-72
2021/06/01 17:57:01;;;;;;;;;;;;;;;22.40;42.54;100974.88;5091293;28;1307;-72
2021/06/01 17:59:27;;;;;;;;;;;;;;;22.43;42.61;100969.59;5088123;28;902;-71
2021/06/01 18:01:53;;;;;;;;;;;;;;;22.34;42.60;100972.22;5070699;28;855;-71
2021/06/01 18:04:19;;;;;;;;;;;;;;;22.48;42.73;100976.94;5070506;28;879;-72
2021/06/01 18:07:12;;;;;;;;;;;;;;;22.53;42.63;100976.81;5070471;28;861;-72